Coulterville, California
Current Conditions -  °F | °C
As of 10:35 AM on Wednesday 26 Nov 2014 (Local Time) from KO22 Reporting Station
Clear Clear  
Wind Chill: 66°   Ceiling: Unl
Heat Index: 66°   Visibility: 10mi
Dew Point: 54°   Wind: 0mph
Humidity: 64%   Direction: NA
Pressure: 30.32"   Gusts: NA
Location:  37.71°N, 120.2°W
Report Text: KO22 261835Z AUTO 00000KT 10SM CLR 19/12 A3032 RMK AO1
Loading
Personal Weather Stations






























Interactive Weather Map New forecast layout! Learn more

10-Day Weather Forecast

Advertisements
Track Severe Weather on mobile